sensor_id;sensor_type;location;lat;lon;timestamp;temperature;humidity
29201;DHT22;16244;51.956;12.980;2022-08-20T00:00:45;19.80;99.90
29201;DHT22;16244;51.956;12.980;2022-08-20T00:03:15;19.70;99.90
29201;DHT22;16244;51.956;12.980;2022-08-20T00:05:45;19.70;99.90
29201;DHT22;16244;51.956;12.980;2022-08-20T00:08:12;19.80;99.90
29201;DHT22;16244;51.956;12.980;2022-08-20T00:10:43;19.70;99.90
29201;DHT22;16244;51.956;12.980;2022-08-20T00:13:15;19.70;99.90
29201;DHT22;16244;51.956;12.980;2022-08-20T00:15:44;19.60;99.90
29201;DHT22;16244;51.956;12.980;2022-08-20T00:18:12;19.60;99.90
29201;DHT22;16244;51.956;12.980;2022-08-20T00:20:42;19.60;99.90
29201;DHT22;16244;51.956;12.980;2022-08-20T00:23:10;19.70;99.90
29201;DHT22;16244;51.956;12.980;2022-08-20T00:25:38;19.70;99.90
29201;DHT22;16244;51.956;12.980;2022-08-20T00:28:07;19.70;99.90
29201;DHT22;16244;51.956;12.980;2022-08-20T00:30:34;19.70;99.90
29201;DHT22;16244;51.956;12.980;2022-08-20T00:33:05;19.70;99.90
29201;DHT22;16244;51.956;12.980;2022-08-20T00:35:35;19.70;99.90
29201;DHT22;16244;51.956;12.980;2022-08-20T00:38:03;19.70;99.90
29201;DHT22;16244;51.956;12.980;2022-08-20T00:40:32;19.70;99.90
29201;DHT22;16244;51.956;12.980;2022-08-20T00:43:02;19.70;99.90
29201;DHT22;16244;51.956;12.980;2022-08-20T00:45:34;19.70;99.90
29201;DHT22;16244;51.956;12.980;2022-08-20T00:48:02;19.70;99.90
29201;DHT22;16244;51.956;12.980;2022-08-20T00:50:33;19.80;99.90
29201;DHT22;16244;51.956;12.980;2022-08-20T00:53:03;19.80;99.90
29201;DHT22;16244;51.956;12.980;2022-08-20T00:55:31;19.80;99.90
29201;DHT22;16244;51.956;12.980;2022-08-20T00:58:03;19.80;99.90
29201;DHT22;16244;51.956;12.980;2022-08-20T01:00:39;19.80;99.90
29201;DHT22;16244;51.956;12.980;2022-08-20T01:03:09;19.80;99.90
29201;DHT22;16244;51.956;12.980;2022-08-20T01:05:39;19.80;99.90
29201;DHT22;16244;51.956;12.980;2022-08-20T01:08:07;19.80;99.90
29201;DHT22;16244;51.956;12.980;2022-08-20T01:10:37;19.80;99.90
29201;DHT22;16244;51.956;12.980;2022-08-20T01:13:07;19.80;99.90
29201;DHT22;16244;51.956;12.980;2022-08-20T01:15:39;19.80;99.90
29201;DHT22;16244;51.956;12.980;2022-08-20T01:18:10;19.80;99.90
29201;DHT22;16244;51.956;12.980;2022-08-20T01:20:41;19.80;99.90
29201;DHT22;16244;51.956;12.980;2022-08-20T01:23:14;19.90;99.90
29201;DHT22;16244;51.956;12.980;2022-08-20T01:26:04;19.80;99.90
29201;DHT22;16244;51.956;12.980;2022-08-20T01:28:36;19.90;99.90
29201;DHT22;16244;51.956;12.980;2022-08-20T01:31:05;19.80;99.90
29201;DHT22;16244;51.956;12.980;2022-08-20T01:33:33;19.80;99.90
29201;DHT22;16244;51.956;12.980;2022-08-20T01:36:00;19.80;99.90
29201;DHT22;16244;51.956;12.980;2022-08-20T01:38:28;19.80;99.90
29201;DHT22;16244;51.956;12.980;2022-08-20T01:41:11;19.80;99.90
29201;DHT22;16244;51.956;12.980;2022-08-20T01:43:41;19.80;99.90
29201;DHT22;16244;51.956;12.980;2022-08-20T01:46:09;19.80;99.90
29201;DHT22;16244;51.956;12.980;2022-08-20T01:48:37;19.80;99.90
29201;DHT22;16244;51.956;12.980;2022-08-20T01:51:10;19.80;99.90
29201;DHT22;16244;51.956;12.980;2022-08-20T01:53:41;19.80;99.90
29201;DHT22;16244;51.956;12.980;2022-08-20T01:56:13;19.70;99.90
29201;DHT22;16244;51.956;12.980;2022-08-20T01:58:45;19.70;99.90
29201;DHT22;16244;51.956;12.980;2022-08-20T02:01:19;19.80;99.90
29201;DHT22;16244;51.956;12.980;2022-08-20T02:03:47;19.80;99.90
29201;DHT22;16244;51.956;12.980;2022-08-20T02:06:14;19.70;99.90
29201;DHT22;16244;51.956;12.980;2022-08-20T02:08:42;19.80;99.90
29201;DHT22;16244;51.956;12.980;2022-08-20T02:11:10;19.80;99.90
29201;DHT22;16244;51.956;12.980;2022-08-20T02:13:37;19.70;99.90
29201;DHT22;16244;51.956;12.980;2022-08-20T02:16:05;19.70;99.90
29201;DHT22;16244;51.956;12.980;2022-08-20T02:18:33;19.70;99.90
29201;DHT22;16244;51.956;12.980;2022-08-20T02:21:00;19.70;99.90
29201;DHT22;16244;51.956;12.980;2022-08-20T02:23:28;19.70;99.90
29201;DHT22;16244;51.956;12.980;2022-08-20T02:25:55;19.70;99.90
29201;DHT22;16244;51.956;12.980;2022-08-20T02:28:24;19.70;99.90
29201;DHT22;16244;51.956;12.980;2022-08-20T02:30:53;19.70;99.90
29201;DHT22;16244;51.956;12.980;2022-08-20T02:33:22;19.70;99.90
29201;DHT22;16244;51.956;12.980;2022-08-20T02:35:50;19.70;99.90
29201;DHT22;16244;51.956;12.980;2022-08-20T02:38:17;19.70;99.90
29201;DHT22;16244;51.956;12.980;2022-08-20T02:40:45;19.70;99.90
29201;DHT22;16244;51.956;12.980;2022-08-20T02:43:13;19.70;99.90
29201;DHT22;16244;51.956;12.980;2022-08-20T02:45:45;19.70;99.90
29201;DHT22;16244;51.956;12.980;2022-08-20T02:48:14;19.70;99.90
29201;DHT22;16244;51.956;12.980;2022-08-20T02:50:47;19.70;99.90
29201;DHT22;16244;51.956;12.980;2022-08-20T02:53:15;19.70;99.90
29201;DHT22;16244;51.956;12.980;2022-08-20T02:55:42;19.70;99.90
29201;DHT22;16244;51.956;12.980;2022-08-20T02:58:10;19.70;99.90
29201;DHT22;16244;51.956;12.980;2022-08-20T03:00:38;19.70;99.90
29201;DHT22;16244;51.956;12.980;2022-08-20T03:03:08;19.70;99.90
29201;DHT22;16244;51.956;12.980;2022-08-20T03:05:40;19.60;99.90
29201;DHT22;16244;51.956;12.980;2022-08-20T03:08:09;19.70;99.90
29201;DHT22;16244;51.956;12.980;2022-08-20T03:10:39;19.70;99.90
29201;DHT22;16244;51.956;12.980;2022-08-20T03:13:07;19.60;99.90
29201;DHT22;16244;51.956;12.980;2022-08-20T03:15:39;19.60;99.90
29201;DHT22;16244;51.956;12.980;2022-08-20T03:18:08;19.60;99.90
29201;DHT22;16244;51.956;12.980;2022-08-20T03:20:36;19.60;99.90
29201;DHT22;16244;51.956;12.980;2022-08-20T03:23:03;19.70;99.90
29201;DHT22;16244;51.956;12.980;2022-08-20T03:25:31;19.60;99.90
29201;DHT22;16244;51.956;12.980;2022-08-20T03:27:58;19.50;99.90
29201;DHT22;16244;51.956;12.980;2022-08-20T03:30:27;19.50;99.90
29201;DHT22;16244;51.956;12.980;2022-08-20T03:32:55;19.40;99.90
29201;DHT22;16244;51.956;12.980;2022-08-20T03:35:25;19.50;99.90
29201;DHT22;16244;51.956;12.980;2022-08-20T03:37:53;19.40;99.90
29201;DHT22;16244;51.956;12.980;2022-08-20T03:40:24;19.40;99.90
29201;DHT22;16244;51.956;12.980;2022-08-20T03:42:52;19.50;99.90
29201;DHT22;16244;51.956;12.980;2022-08-20T03:45:20;19.40;99.90
29201;DHT22;16244;51.956;12.980;2022-08-20T03:47:49;19.40;99.90
29201;DHT22;16244;51.956;12.980;2022-08-20T03:50:20;19.50;99.90
29201;DHT22;16244;51.956;12.980;2022-08-20T03:52:50;19.50;99.90
29201;DHT22;16244;51.956;12.980;2022-08-20T03:55:18;19.50;99.90
29201;DHT22;16244;51.956;12.980;2022-08-20T03:57:47;19.50;99.90
29201;DHT22;16244;51.956;12.980;2022-08-20T04:00:18;19.40;99.90
29201;DHT22;16244;51.956;12.980;2022-08-20T04:02:46;19.40;99.90
29201;DHT22;16244;51.956;12.980;2022-08-20T04:05:13;19.40;99.90
29201;DHT22;16244;51.956;12.980;2022-08-20T04:07:41;19.40;99.90
29201;DHT22;16244;51.956;12.980;2022-08-20T04:10:11;19.50;99.90
29201;DHT22;16244;51.956;12.980;2022-08-20T04:12:38;19.40;99.90
29201;DHT22;16244;51.956;12.980;2022-08-20T04:15:08;19.40;99.90
29201;DHT22;16244;51.956;12.980;2022-08-20T04:17:37;19.40;99.90
29201;DHT22;16244;51.956;12.980;2022-08-20T04:20:08;19.40;99.90
29201;DHT22;16244;51.956;12.980;2022-08-20T04:22:36;19.40;99.90
29201;DHT22;16244;51.956;12.980;2022-08-20T04:25:05;19.40;99.90
29201;DHT22;16244;51.956;12.980;2022-08-20T04:27:35;19.40;99.90
29201;DHT22;16244;51.956;12.980;2022-08-20T04:30:03;19.40;99.90
29201;DHT22;16244;51.956;12.980;2022-08-20T04:32:31;19.40;99.90
29201;DHT22;16244;51.956;12.980;2022-08-20T04:35:01;19.40;99.90
29201;DHT22;16244;51.956;12.980;2022-08-20T04:37:28;19.40;99.90
29201;DHT22;16244;51.956;12.980;2022-08-20T04:39:56;19.40;99.90
29201;DHT22;16244;51.956;12.980;2022-08-20T04:42:42;19.40;99.90
29201;DHT22;16244;51.956;12.980;2022-08-20T04:45:10;19.30;99.90
29201;DHT22;16244;51.956;12.980;2022-08-20T04:47:37;19.30;99.90
29201;DHT22;16244;51.956;12.980;2022-08-20T04:50:07;19.30;99.90
29201;DHT22;16244;51.956;12.980;2022-08-20T04:52:35;19.30;99.90
29201;DHT22;16244;51.956;12.980;2022-08-20T04:55:02;19.30;99.90
29201;DHT22;16244;51.956;12.980;2022-08-20T04:57:30;19.30;99.90
29201;DHT22;16244;51.956;12.980;2022-08-20T04:59:59;19.30;99.90
29201;DHT22;16244;51.956;12.980;2022-08-20T05:02:26;19.30;99.90
29201;DHT22;16244;51.956;12.980;2022-08-20T05:04:53;19.30;99.90
29201;DHT22;16244;51.956;12.980;2022-08-20T05:07:20;19.30;99.90
29201;DHT22;16244;51.956;12.980;2022-08-20T05:09:47;19.40;99.90
29201;DHT22;16244;51.956;12.980;2022-08-20T05:12:14;19.40;99.90
29201;DHT22;16244;51.956;12.980;2022-08-20T05:14:43;19.40;99.90
29201;DHT22;16244;51.956;12.980;2022-08-20T05:17:12;19.40;99.90
29201;DHT22;16244;51.956;12.980;2022-08-20T05:19:39;19.40;99.90
29201;DHT22;16244;51.956;12.980;2022-08-20T05:22:07;19.30;99.90
29201;DHT22;16244;51.956;12.980;2022-08-20T05:24:34;19.40;99.90
29201;DHT22;16244;51.956;12.980;2022-08-20T05:27:01;19.30;99.90
29201;DHT22;16244;51.956;12.980;2022-08-20T05:29:28;19.30;99.90
29201;DHT22;16244;51.956;12.980;2022-08-20T05:31:56;19.30;99.90
29201;DHT22;16244;51.956;12.980;2022-08-20T05:34:24;19.30;99.90
29201;DHT22;16244;51.956;12.980;2022-08-20T05:36:51;19.40;99.90
29201;DHT22;16244;51.956;12.980;2022-08-20T05:39:20;19.40;99.90
29201;DHT22;16244;51.956;12.980;2022-08-20T05:41:47;19.30;99.90
29201;DHT22;16244;51.956;12.980;2022-08-20T05:44:16;19.30;99.90
29201;DHT22;16244;51.956;12.980;2022-08-20T05:46:45;19.30;99.90
29201;DHT22;16244;51.956;12.980;2022-08-20T05:49:15;19.30;99.90
29201;DHT22;16244;51.956;12.980;2022-08-20T05:51:45;19.30;99.90
29201;DHT22;16244;51.956;12.980;2022-08-20T05:54:14;19.30;99.90
29201;DHT22;16244;51.956;12.980;2022-08-20T05:56:41;19.30;99.90
29201;DHT22;16244;51.956;12.980;2022-08-20T05:59:09;19.20;99.90
29201;DHT22;16244;51.956;12.980;2022-08-20T06:01:38;19.20;99.90
29201;DHT22;16244;51.956;12.980;2022-08-20T06:04:06;19.20;99.90
29201;DHT22;16244;51.956;12.980;2022-08-20T06:06:55;19.20;99.90
29201;DHT22;16244;51.956;12.980;2022-08-20T06:09:24;19.20;99.90
29201;DHT22;16244;51.956;12.980;2022-08-20T06:11:52;19.20;99.90
29201;DHT22;16244;51.956;12.980;2022-08-20T06:14:19;19.20;99.90
29201;DHT22;16244;51.956;12.980;2022-08-20T06:16:47;19.20;99.90
29201;DHT22;16244;51.956;12.980;2022-08-20T06:19:14;19.20;99.90
29201;DHT22;16244;51.956;12.980;2022-08-20T06:21:42;19.20;99.90
29201;DHT22;16244;51.956;12.980;2022-08-20T06:24:10;19.30;99.90
29201;DHT22;16244;51.956;12.980;2022-08-20T06:26:37;19.30;99.90
29201;DHT22;16244;51.956;12.980;2022-08-20T06:29:04;19.40;99.90
29201;DHT22;16244;51.956;12.980;2022-08-20T06:31:32;19.40;99.90
29201;DHT22;16244;51.956;12.980;2022-08-20T06:34:04;19.40;99.90
29201;DHT22;16244;51.956;12.980;2022-08-20T06:36:32;19.40;99.90
29201;DHT22;16244;51.956;12.980;2022-08-20T06:38:59;19.50;99.90
29201;DHT22;16244;51.956;12.980;2022-08-20T06:41:27;19.50;99.90
29201;DHT22;16244;51.956;12.980;2022-08-20T06:43:55;19.50;99.90
29201;DHT22;16244;51.956;12.980;2022-08-20T06:46:22;19.50;99.90
29201;DHT22;16244;51.956;12.980;2022-08-20T06:48:49;19.60;99.90
29201;DHT22;16244;51.956;12.980;2022-08-20T06:51:17;19.60;99.90
29201;DHT22;16244;51.956;12.980;2022-08-20T06:53:45;19.60;99.90
29201;DHT22;16244;51.956;12.980;2022-08-20T06:56:12;19.60;99.90
29201;DHT22;16244;51.956;12.980;2022-08-20T06:58:41;19.70;99.90
29201;DHT22;16244;51.956;12.980;2022-08-20T07:01:10;19.70;99.90
29201;DHT22;16244;51.956;12.980;2022-08-20T07:03:39;19.70;99.90
29201;DHT22;16244;51.956;12.980;2022-08-20T07:06:07;19.80;99.90
29201;DHT22;16244;51.956;12.980;2022-08-20T07:08:36;19.80;99.90
29201;DHT22;16244;51.956;12.980;2022-08-20T07:11:03;19.80;99.90
29201;DHT22;16244;51.956;12.980;2022-08-20T07:13:30;19.80;99.90
29201;DHT22;16244;51.956;12.980;2022-08-20T07:15:59;19.80;99.90
29201;DHT22;16244;51.956;12.980;2022-08-20T07:18:26;19.80;99.90
29201;DHT22;16244;51.956;12.980;2022-08-20T07:20:53;19.80;99.90
29201;DHT22;16244;51.956;12.980;2022-08-20T07:23:21;19.80;99.90
29201;DHT22;16244;51.956;12.980;2022-08-20T07:25:49;19.80;99.90
29201;DHT22;16244;51.956;12.980;2022-08-20T07:28:19;19.90;99.90
29201;DHT22;16244;51.956;12.980;2022-08-20T07:30:47;19.90;99.90
29201;DHT22;16244;51.956;12.980;2022-08-20T07:33:33;19.80;99.90
29201;DHT22;16244;51.956;12.980;2022-08-20T07:36:03;19.80;99.90
29201;DHT22;16244;51.956;12.980;2022-08-20T07:38:31;19.80;99.90
29201;DHT22;16244;51.956;12.980;2022-08-20T07:41:01;19.80;99.90
29201;DHT22;16244;51.956;12.980;2022-08-20T07:43:30;19.80;99.90
29201;DHT22;16244;51.956;12.980;2022-08-20T07:45:59;19.90;99.90
29201;DHT22;16244;51.956;12.980;2022-08-20T07:48:28;20.00;99.90
29201;DHT22;16244;51.956;12.980;2022-08-20T07:50:58;20.00;99.90
29201;DHT22;16244;51.956;12.980;2022-08-20T07:53:26;20.00;99.90
29201;DHT22;16244;51.956;12.980;2022-08-20T07:55:53;19.90;99.90
29201;DHT22;16244;51.956;12.980;2022-08-20T07:58:22;20.00;99.90
29201;DHT22;16244;51.956;12.980;2022-08-20T08:00:50;20.00;99.90
29201;DHT22;16244;51.956;12.980;2022-08-20T08:03:18;20.00;99.90
29201;DHT22;16244;51.956;12.980;2022-08-20T08:05:48;20.10;99.90
29201;DHT22;16244;51.956;12.980;2022-08-20T08:08:21;20.10;99.90
29201;DHT22;16244;51.956;12.980;2022-08-20T08:10:51;20.10;99.90
29201;DHT22;16244;51.956;12.980;2022-08-20T08:13:19;20.10;99.90
29201;DHT22;16244;51.956;12.980;2022-08-20T08:15:54;20.20;99.90
29201;DHT22;16244;51.956;12.980;2022-08-20T08:18:24;20.10;99.90
29201;DHT22;16244;51.956;12.980;2022-08-20T08:20:53;20.10;99.90
29201;DHT22;16244;51.956;12.980;2022-08-20T08:23:23;20.20;99.90
29201;DHT22;16244;51.956;12.980;2022-08-20T08:25:51;20.10;99.90
29201;DHT22;16244;51.956;12.980;2022-08-20T08:28:19;20.10;99.90
29201;DHT22;16244;51.956;12.980;2022-08-20T08:30:47;20.20;99.90
29201;DHT22;16244;51.956;12.980;2022-08-20T08:33:19;20.20;99.90
29201;DHT22;16244;51.956;12.980;2022-08-20T08:35:58;20.20;99.90
29201;DHT22;16244;51.956;12.980;2022-08-20T08:38:28;20.30;99.90
29201;DHT22;16244;51.956;12.980;2022-08-20T08:40:57;20.30;99.90
29201;DHT22;16244;51.956;12.980;2022-08-20T08:43:30;20.40;99.90
29201;DHT22;16244;51.956;12.980;2022-08-20T08:46:01;20.40;99.90
29201;DHT22;16244;51.956;12.980;2022-08-20T08:48:32;20.40;99.90
29201;DHT22;16244;51.956;12.980;2022-08-20T08:51:03;20.50;99.90
29201;DHT22;16244;51.956;12.980;2022-08-20T08:53:38;20.50;99.90
29201;DHT22;16244;51.956;12.980;2022-08-20T08:56:08;20.60;99.90
29201;DHT22;16244;51.956;12.980;2022-08-20T08:58:35;20.60;99.90
29201;DHT22;16244;51.956;12.980;2022-08-20T09:01:08;20.70;99.90
29201;DHT22;16244;51.956;12.980;2022-08-20T09:03:38;20.60;99.90
29201;DHT22;16244;51.956;12.980;2022-08-20T09:06:11;20.60;99.90
29201;DHT22;16244;51.956;12.980;2022-08-20T09:08:44;20.70;99.90
29201;DHT22;16244;51.956;12.980;2022-08-20T09:11:14;20.70;99.90
29201;DHT22;16244;51.956;12.980;2022-08-20T09:13:41;20.70;99.90
29201;DHT22;16244;51.956;12.980;2022-08-20T09:16:09;20.70;99.90
29201;DHT22;16244;51.956;12.980;2022-08-20T09:18:37;20.70;99.90
29201;DHT22;16244;51.956;12.980;2022-08-20T09:21:04;20.80;99.90
29201;DHT22;16244;51.956;12.980;2022-08-20T09:23:32;20.70;99.90
29201;DHT22;16244;51.956;12.980;2022-08-20T09:26:00;20.80;99.90
29201;DHT22;16244;51.956;12.980;2022-08-20T09:28:28;20.80;99.90
29201;DHT22;16244;51.956;12.980;2022-08-20T09:30:55;20.90;99.90
29201;DHT22;16244;51.956;12.980;2022-08-20T09:33:22;20.80;99.90
29201;DHT22;16244;51.956;12.980;2022-08-20T09:35:49;20.80;99.90
29201;DHT22;16244;51.956;12.980;2022-08-20T09:38:16;20.90;99.90
29201;DHT22;16244;51.956;12.980;2022-08-20T09:40:43;20.90;99.90
29201;DHT22;16244;51.956;12.980;2022-08-20T09:43:12;21.00;99.90
29201;DHT22;16244;51.956;12.980;2022-08-20T09:45:39;21.00;99.90
29201;DHT22;16244;51.956;12.980;2022-08-20T09:48:06;21.10;99.90
29201;DHT22;16244;51.956;12.980;2022-08-20T09:50:34;21.10;99.90
29201;DHT22;16244;51.956;12.980;2022-08-20T09:53:04;21.20;99.90
29201;DHT22;16244;51.956;12.980;2022-08-20T09:55:33;21.20;99.90
29201;DHT22;16244;51.956;12.980;2022-08-20T09:58:03;21.20;99.90
29201;DHT22;16244;51.956;12.980;2022-08-20T10:00:33;21.20;99.90
29201;DHT22;16244;51.956;12.980;2022-08-20T10:03:00;21.10;99.90
29201;DHT22;16244;51.956;12.980;2022-08-20T10:05:28;21.10;99.90
29201;DHT22;16244;51.956;12.980;2022-08-20T10:07:58;21.10;99.90
29201;DHT22;16244;51.956;12.980;2022-08-20T10:10:25;21.20;99.90
29201;DHT22;16244;51.956;12.980;2022-08-20T10:12:52;21.20;99.90
29201;DHT22;16244;51.956;12.980;2022-08-20T10:15:19;21.20;99.90
29201;DHT22;16244;51.956;12.980;2022-08-20T10:17:47;21.20;99.90
29201;DHT22;16244;51.956;12.980;2022-08-20T10:20:14;21.20;99.90
29201;DHT22;16244;51.956;12.980;2022-08-20T10:22:43;21.20;99.90
29201;DHT22;16244;51.956;12.980;2022-08-20T10:25:11;21.20;99.90
29201;DHT22;16244;51.956;12.980;2022-08-20T10:27:38;21.20;99.90
29201;DHT22;16244;51.956;12.980;2022-08-20T10:30:06;21.20;99.90
29201;DHT22;16244;51.956;12.980;2022-08-20T10:32:35;21.30;99.90
29201;DHT22;16244;51.956;12.980;2022-08-20T10:35:04;21.30;99.90
29201;DHT22;16244;51.956;12.980;2022-08-20T10:37:31;21.20;99.90
29201;DHT22;16244;51.956;12.980;2022-08-20T10:39:59;21.20;99.90
29201;DHT22;16244;51.956;12.980;2022-08-20T10:42:26;21.20;99.90
29201;DHT22;16244;51.956;12.980;2022-08-20T10:44:53;21.20;99.90
29201;DHT22;16244;51.956;12.980;2022-08-20T10:47:23;21.20;99.90
29201;DHT22;16244;51.956;12.980;2022-08-20T10:49:52;21.20;99.90
29201;DHT22;16244;51.956;12.980;2022-08-20T10:52:21;21.20;99.90
29201;DHT22;16244;51.956;12.980;2022-08-20T10:54:49;21.10;99.90
29201;DHT22;16244;51.956;12.980;2022-08-20T10:57:19;21.10;99.90
29201;DHT22;16244;51.956;12.980;2022-08-20T10:59:48;21.20;99.90
29201;DHT22;16244;51.956;12.980;2022-08-20T11:02:16;21.20;99.90
29201;DHT22;16244;51.956;12.980;2022-08-20T11:04:45;21.20;99.90
29201;DHT22;16244;51.956;12.980;2022-08-20T11:07:15;21.20;99.90
29201;DHT22;16244;51.956;12.980;2022-08-20T11:09:45;21.20;99.90
29201;DHT22;16244;51.956;12.980;2022-08-20T11:12:13;21.20;99.90
29201;DHT22;16244;51.956;12.980;2022-08-20T11:14:40;21.20;99.90
29201;DHT22;16244;51.956;12.980;2022-08-20T11:17:07;21.20;99.90
29201;DHT22;16244;51.956;12.980;2022-08-20T11:19:38;21.30;99.90
29201;DHT22;16244;51.956;12.980;2022-08-20T11:22:06;21.30;99.90
29201;DHT22;16244;51.956;12.980;2022-08-20T11:24:34;21.40;99.90
29201;DHT22;16244;51.956;12.980;2022-08-20T11:27:06;21.50;99.90
29201;DHT22;16244;51.956;12.980;2022-08-20T11:29:33;21.60;99.90
29201;DHT22;16244;51.956;12.980;2022-08-20T11:32:01;21.70;99.90
29201;DHT22;16244;51.956;12.980;2022-08-20T11:34:28;21.70;99.90
29201;DHT22;16244;51.956;12.980;2022-08-20T11:36:55;21.80;99.90
29201;DHT22;16244;51.956;12.980;2022-08-20T11:39:23;21.90;99.90
29201;DHT22;16244;51.956;12.980;2022-08-20T11:41:51;21.90;99.90
29201;DHT22;16244;51.956;12.980;2022-08-20T11:44:19;22.00;99.90
29201;DHT22;16244;51.956;12.980;2022-08-20T11:46:47;21.90;99.90
29201;DHT22;16244;51.956;12.980;2022-08-20T11:49:14;21.90;99.90
29201;DHT22;16244;51.956;12.980;2022-08-20T11:51:41;21.90;99.90
29201;DHT22;16244;51.956;12.980;2022-08-20T11:54:08;21.90;99.90
29201;DHT22;16244;51.956;12.980;2022-08-20T11:56:35;21.80;99.90
29201;DHT22;16244;51.956;12.980;2022-08-20T11:59:02;21.80;99.90
29201;DHT22;16244;51.956;12.980;2022-08-20T12:01:30;21.90;99.90
29201;DHT22;16244;51.956;12.980;2022-08-20T12:03:58;21.80;99.90
29201;DHT22;16244;51.956;12.980;2022-08-20T12:06:25;21.70;99.90
29201;DHT22;16244;51.956;12.980;2022-08-20T12:08:52;21.70;99.90
29201;DHT22;16244;51.956;12.980;2022-08-20T12:11:19;21.60;99.90
29201;DHT22;16244;51.956;12.980;2022-08-20T12:13:46;21.60;99.90
29201;DHT22;16244;51.956;12.980;2022-08-20T12:16:14;21.70;99.90
29201;DHT22;16244;51.956;12.980;2022-08-20T12:18:42;21.70;99.90
29201;DHT22;16244;51.956;12.980;2022-08-20T12:21:11;21.70;99.90
29201;DHT22;16244;51.956;12.980;2022-08-20T12:23:38;21.70;99.90
29201;DHT22;16244;51.956;12.980;2022-08-20T12:26:06;21.60;99.90
29201;DHT22;16244;51.956;12.980;2022-08-20T12:28:33;21.60;99.90
29201;DHT22;16244;51.956;12.980;2022-08-20T12:31:00;21.60;99.90
29201;DHT22;16244;51.956;12.980;2022-08-20T12:33:27;21.60;99.90
29201;DHT22;16244;51.956;12.980;2022-08-20T12:35:56;21.70;99.90
29201;DHT22;16244;51.956;12.980;2022-08-20T12:38:23;21.70;99.90
29201;DHT22;16244;51.956;12.980;2022-08-20T12:40:50;21.70;99.90
29201;DHT22;16244;51.956;12.980;2022-08-20T12:43:17;21.70;99.90
29201;DHT22;16244;51.956;12.980;2022-08-20T12:45:44;21.70;99.90
29201;DHT22;16244;51.956;12.980;2022-08-20T12:48:12;21.70;99.90
29201;DHT22;16244;51.956;12.980;2022-08-20T12:50:41;21.60;99.90
29201;DHT22;16244;51.956;12.980;2022-08-20T12:53:11;21.50;99.90
29201;DHT22;16244;51.956;12.980;2022-08-20T12:55:39;21.40;99.90
29201;DHT22;16244;51.956;12.980;2022-08-20T12:58:08;21.40;99.90
29201;DHT22;16244;51.956;12.980;2022-08-20T13:00:37;21.40;99.90
29201;DHT22;16244;51.956;12.980;2022-08-20T13:03:07;21.30;99.90
29201;DHT22;16244;51.956;12.980;2022-08-20T13:05:34;21.40;99.90
29201;DHT22;16244;51.956;12.980;2022-08-20T13:08:04;21.50;99.90
29201;DHT22;16244;51.956;12.980;2022-08-20T13:10:37;21.60;99.90
29201;DHT22;16244;51.956;12.980;2022-08-20T13:13:09;21.70;99.90
29201;DHT22;16244;51.956;12.980;2022-08-20T13:15:37;21.80;99.90
29201;DHT22;16244;51.956;12.980;2022-08-20T13:18:05;21.80;99.90
29201;DHT22;16244;51.956;12.980;2022-08-20T13:20:33;21.90;99.90
29201;DHT22;16244;51.956;12.980;2022-08-20T13:23:04;21.80;99.90
29201;DHT22;16244;51.956;12.980;2022-08-20T13:25:38;21.70;99.90
29201;DHT22;16244;51.956;12.980;2022-08-20T13:28:07;21.60;99.90
29201;DHT22;16244;51.956;12.980;2022-08-20T13:30:43;21.60;99.90
29201;DHT22;16244;51.956;12.980;2022-08-20T13:33:13;21.60;99.90
29201;DHT22;16244;51.956;12.980;2022-08-20T13:35:52;21.60;99.90
29201;DHT22;16244;51.956;12.980;2022-08-20T13:38:20;21.50;99.90
29201;DHT22;16244;51.956;12.980;2022-08-20T13:40:50;21.50;99.90
29201;DHT22;16244;51.956;12.980;2022-08-20T13:43:20;21.60;99.90
29201;DHT22;16244;51.956;12.980;2022-08-20T13:45:47;21.60;99.90
29201;DHT22;16244;51.956;12.980;2022-08-20T13:48:15;21.60;99.90
29201;DHT22;16244;51.956;12.980;2022-08-20T13:50:47;21.60;99.90
29201;DHT22;16244;51.956;12.980;2022-08-20T13:53:15;21.70;99.90
29201;DHT22;16244;51.956;12.980;2022-08-20T13:55:43;21.60;99.90
29201;DHT22;16244;51.956;12.980;2022-08-20T13:58:15;21.60;99.90
29201;DHT22;16244;51.956;12.980;2022-08-20T14:00:50;21.60;99.90
29201;DHT22;16244;51.956;12.980;2022-08-20T14:03:34;21.60;99.90
29201;DHT22;16244;51.956;12.980;2022-08-20T14:06:17;21.60;99.90
29201;DHT22;16244;51.956;12.980;2022-08-20T14:08:54;21.60;99.90
29201;DHT22;16244;51.956;12.980;2022-08-20T14:11:31;21.60;99.90
29201;DHT22;16244;51.956;12.980;2022-08-20T14:14:05;21.60;99.90
29201;DHT22;16244;51.956;12.980;2022-08-20T14:16:47;21.60;99.90
29201;DHT22;16244;51.956;12.980;2022-08-20T14:19:22;21.60;99.90
29201;DHT22;16244;51.956;12.980;2022-08-20T14:21:50;21.60;99.90
29201;DHT22;16244;51.956;12.980;2022-08-20T14:24:36;21.70;99.90
29201;DHT22;16244;51.956;12.980;2022-08-20T14:27:12;21.70;99.90
29201;DHT22;16244;51.956;12.980;2022-08-20T14:29:57;21.70;99.90
29201;DHT22;16244;51.956;12.980;2022-08-20T14:32:55;21.70;99.90
29201;DHT22;16244;51.956;12.980;2022-08-20T14:35:41;21.70;99.90
29201;DHT22;16244;51.956;12.980;2022-08-20T14:38:38;21.70;99.90
29201;DHT22;16244;51.956;12.980;2022-08-20T14:41:24;21.70;99.90
29201;DHT22;16244;51.956;12.980;2022-08-20T14:44:22;21.70;99.90
29201;DHT22;16244;51.956;12.980;2022-08-20T14:47:23;21.70;99.90
29201;DHT22;16244;51.956;12.980;2022-08-20T14:50:13;21.60;99.90
29201;DHT22;16244;51.956;12.980;2022-08-20T14:53:28;21.60;99.90
29201;DHT22;16244;51.956;12.980;2022-08-20T14:56:42;21.60;99.90
29201;DHT22;16244;51.956;12.980;2022-08-20T14:59:39;21.50;99.90
29201;DHT22;16244;51.956;12.980;2022-08-20T15:06:16;21.50;99.90
29201;DHT22;16244;51.956;12.980;2022-08-20T15:09:02;21.50;99.90
29201;DHT22;16244;51.956;12.980;2022-08-20T15:15:05;21.50;99.90
29201;DHT22;16244;51.956;12.980;2022-08-20T15:18:14;21.50;99.90
29201;DHT22;16244;51.956;12.980;2022-08-20T15:21:25;21.50;99.90
29201;DHT22;16244;51.956;12.980;2022-08-20T15:24:10;21.50;99.90
29201;DHT22;16244;51.956;12.980;2022-08-20T15:27:13;21.50;99.90
29201;DHT22;16244;51.956;12.980;2022-08-20T15:32:22;21.50;99.90
29201;DHT22;16244;51.956;12.980;2022-08-20T15:34:49;21.50;99.90
29201;DHT22;16244;51.956;12.980;2022-08-20T15:37:21;21.50;99.90
29201;DHT22;16244;51.956;12.980;2022-08-20T15:39:48;21.50;99.90
29201;DHT22;16244;51.956;12.980;2022-08-20T15:42:17;21.50;99.90
29201;DHT22;16244;51.956;12.980;2022-08-20T15:44:44;21.50;99.90